Terminal Aerodrome Forecast
Issued by NWS Central Illinois

Home | Current Version | Previous Version | Text Only | Print | Product List | Glossary On
Versions: 1 2 3 4 5 6 7 8 9 10 11 12
000
FTUS43 KILX 121700 RRA
TAFPIA
TAF
KPIA 121743Z 1218/1318 22008KT P6SM SCT050 BKN100
     FM130200 18012KT P6SM BKN120
     FM130300 21012KT P6SM -RA VCTS SCT050CB BKN100
      TEMPO 1304/1307 2SM TSRA BKN035CB
     FM131100 26007KT 6SM BR BKN100=

USA.gov is the U.S. government's official web portal to all federal, state and local government web resources and services.